首页
METAR-TAF:

METAR-TAF

机场 :

约翰·卡尔·芒罗哈密尔顿国际机场

哈密尔顿, 安大略省, 加拿大

纬度: 43-10N, 经度: 079-56W, 海拔: 237米

当前天气观测

该预报发布于57分钟前的20:00 UTC
风速15节,风向西北,有时为23节阵风
温度 24°C
湿度 44%
气压 1013 hPa
能見度: 24.1公里
散云层高于6500英尺
多云层高于9200英尺

METAR: CYHM 062000Z 31015G23KT 15SM SCT065 BKN092 24/11 A2990 RMK CU4AC1 SLP123 DENSITY ALT 2100FT

时间: 16:57 (20:57 UTC)

预报

该预报发布于3小时和18分钟前的17:39 UTC
预报有效从06日的 18点(UTC)到 07日的 18点(UTC)
风速12节,风向西北,有时为22节阵风
能見度: 10公里
多云层高于7000英尺
从 07日的 0000点(UTC)
风速10节,风向北转西北,有时为20节阵风
能見度: 10公里
天空无云
成为
从 07日的 02点(UTC)到 07日的 04点(UTC)
风速10节,风向
从 07日的 1700点(UTC)
风速10节,风向北转西北
能見度: 10公里
少量云层高于5000英尺

TAF: CYHM 061739Z 0618/0718 31012G22KT P6SM BKN070 FM070000 33010G20KT P6SM SKC BECMG 0702/0704 36010KT FM071700 33010KT P6SM FEW050 RMK NXT FCST BY 070000Z

超过4000个机场的气象观测和天气预报(METAR&TAF报告)。

可查询的气象台以黄色和红色小点在地图上表示。

将鼠标移到小点上方,可查看气象台名称。

然后点击查看天气观测和预报。

如需切换地图:点击带黑十字的绿色按钮放大地图;点击带横线的绿色按钮缩小地图;或者点击绿色箭头查看邻近地区的地图。


METAR-TAF: